Time;durP1;ratioP1;P1;durP2;ratioP2;P2;SDS_P1;SDS_P2;PMS_P1;PMS_P2;Temp;Humidity;BMP_temperature;BMP_pressure;BME280_temperature;BME280_humidity;BME280_pressure;Samples;Min_cycle;Max_cycle;Signal;HPM_P1;HPM_P2
2021/09/04 00:00:53;;;;;;;17.13;8.15;;;12.80;99.90;;;;;;5102539;28;21532;-65
2021/09/04 00:03:19;;;;;;;;;;;12.90;99.90;;;;;;5102493;28;20039;-65
2021/09/04 00:05:44;;;;;;;12.10;7.93;;;12.90;99.90;;;;;;5103341;28;19919;-64
2021/09/04 00:08:10;;;;;;;;;;;12.80;99.90;;;;;;5103216;28;20039;-65
2021/09/04 00:10:36;;;;;;;14.07;7.80;;;12.80;99.90;;;;;;5103268;28;19985;-65
2021/09/04 00:13:01;;;;;;;;;;;12.80;99.90;;;;;;5104555;28;20042;-65
2021/09/04 00:15:27;;;;;;;14.82;7.95;;;12.70;99.90;;;;;;5102489;28;20379;-65
2021/09/04 00:17:56;;;;;;;;;;;12.70;99.90;;;;;;5095096;28;20085;-65
2021/09/04 00:20:21;;;;;;;14.57;8.18;;;12.70;99.90;;;;;;5089261;28;20034;-62
2021/09/04 00:22:47;;;;;;;;;;;12.70;99.90;;;;;;5089608;28;20444;-62
2021/09/04 00:25:14;;;;;;;16.27;7.35;;;12.70;99.90;;;;;;5089305;28;19923;-63
2021/09/04 00:27:39;;;;;;;17.73;8.02;;;12.70;99.90;;;;;;5092342;28;20417;-62
2021/09/04 00:30:05;;;;;;;;;;;12.80;99.90;;;;;;5091901;28;20040;-62
2021/09/04 00:32:31;;;;;;;16.05;7.75;;;12.80;99.90;;;;;;5087583;28;20012;-63
2021/09/04 00:34:56;;;;;;;;;;;12.80;99.90;;;;;;5089192;28;20506;-62
2021/09/04 00:37:22;;;;;;;15.32;7.80;;;12.70;99.90;;;;;;5089006;28;19989;-63
2021/09/04 00:39:47;;;;;;;;;;;12.70;99.90;;;;;;5089239;28;20040;-63
2021/09/04 00:42:14;;;;;;;13.52;7.90;;;12.70;99.90;;;;;;5089725;28;19920;-62
2021/09/04 00:44:40;;;;;;;13.25;8.00;;;12.60;99.90;;;;;;5088578;28;20130;-62
2021/09/04 00:47:06;;;;;;;;;;;12.60;99.90;;;;;;5086941;28;20139;-64
2021/09/04 00:49:34;;;;;;;10.63;6.55;;;12.60;99.90;;;;;;5087645;28;19927;-63
2021/09/04 00:52:00;;;;;;;15.68;8.38;;;12.60;99.90;;;;;;5088613;28;20587;-63
2021/09/04 00:54:25;;;;;;;;;;;12.60;99.90;;;;;;5089163;28;20119;-62
2021/09/04 00:56:51;;;;;;;11.25;7.28;;;12.50;99.90;;;;;;5088165;28;19987;-62
2021/09/04 00:59:17;;;;;;;;;;;12.50;99.90;;;;;;5088717;28;20044;-62
2021/09/04 01:01:43;;;;;;;15.27;7.65;;;12.50;99.90;;;;;;5086014;28;19999;-62
2021/09/04 01:04:08;;;;;;;;;;;12.40;99.90;;;;;;5070483;28;20040;-62
2021/09/04 01:06:34;;;;;;;18.15;8.52;;;12.40;99.90;;;;;;5088159;28;19999;-62
2021/09/04 01:09:00;;;;;;;;;;;12.40;99.90;;;;;;5088538;28;20036;-63
2021/09/04 01:11:26;;;;;;;11.80;7.28;;;12.40;99.90;;;;;;5089323;28;19920;-63
2021/09/04 01:13:51;;;;;;;;;;;12.40;99.90;;;;;;5088641;28;20527;-63
2021/09/04 01:16:17;;;;;;;16.67;7.65;;;12.40;99.90;;;;;;5086070;28;19916;-62
2021/09/04 01:18:43;;;;;;;;;;;12.30;99.90;;;;;;5087908;28;20450;-63
2021/09/04 01:21:09;;;;;;;13.07;7.70;;;12.40;99.90;;;;;;5087821;28;20026;-61
2021/09/04 01:23:35;;;;;;;13.55;7.80;;;12.40;99.90;;;;;;5088173;28;20047;-63
2021/09/04 01:26:05;;;;;;;;;;;12.40;99.90;;;;;;5087989;28;20089;-63
2021/09/04 01:28:31;;;;;;;14.90;8.93;;;12.30;99.90;;;;;;5093018;28;19920;-64
2021/09/04 01:30:56;;;;;;;;;;;12.20;99.90;;;;;;5086382;28;20039;-64
2021/09/04 01:33:22;;;;;;;14.57;7.75;;;12.30;99.90;;;;;;5070367;22;19920;-64
2021/09/04 01:35:48;;;;;;;;;;;12.30;99.90;;;;;;5058678;28;20036;-64
2021/09/04 01:38:13;;;;;;;12.75;7.18;;;12.30;99.90;;;;;;5067878;28;19962;-64
2021/09/04 01:40:39;;;;;;;;;;;12.20;99.90;;;;;;5068478;28;20037;-64
2021/09/04 01:43:05;;;;;;;18.15;8.25;;;12.20;99.90;;;;;;5067595;28;19920;-64
2021/09/04 01:45:30;;;;;;;;;;;12.20;99.90;;;;;;5066477;28;20127;-64
2021/09/04 01:47:55;;;;;;;18.75;7.43;;;12.10;99.90;;;;;;5067267;28;19966;-64
2021/09/04 01:50:21;;;;;;;;;;;12.00;99.90;;;;;;5068219;28;20372;-65
2021/09/04 01:52:47;;;;;;;16.45;7.47;;;12.00;99.90;;;;;;5067852;28;20608;-64
2021/09/04 01:55:13;;;;;;;;;;;12.00;99.90;;;;;;5068045;28;20032;-64
2021/09/04 01:57:39;;;;;;;12.13;6.97;;;12.00;99.90;;;;;;5067356;28;20284;-64
2021/09/04 02:00:05;;;;;;;;;;;12.00;99.90;;;;;;5066975;28;20492;-64
2021/09/04 02:02:31;;;;;;;16.75;6.95;;;12.00;99.90;;;;;;5049060;28;19921;-64
2021/09/04 02:04:56;;;;;;;;;;;11.90;99.90;;;;;;5067314;28;20040;-64
2021/09/04 02:07:22;;;;;;;16.08;7.60;;;12.00;99.90;;;;;;5066909;28;20555;-64
2021/09/04 02:09:47;;;;;;;;;;;12.00;99.90;;;;;;5067427;28;20532;-64
2021/09/04 02:12:13;;;;;;;12.30;7.68;;;12.00;99.90;;;;;;5067170;28;19920;-63
2021/09/04 02:14:38;;;;;;;;;;;12.00;99.90;;;;;;5049246;28;20036;-64
2021/09/04 02:17:04;;;;;;;12.00;7.43;;;12.00;99.90;;;;;;5066313;28;19920;-64
2021/09/04 02:19:29;;;;;;;;;;;11.90;99.90;;;;;;5067077;28;20425;-64
2021/09/04 02:21:55;;;;;;;77.82;44.03;;;12.00;99.90;;;;;;5066712;28;19916;-63
2021/09/04 02:24:21;;;;;;;;;;;11.90;99.90;;;;;;5066875;28;20841;-64
2021/09/04 02:26:46;;;;;;;25.30;14.13;;;12.00;99.90;;;;;;5066237;28;19921;-64
2021/09/04 02:29:11;;;;;;;;;;;12.00;99.90;;;;;;5066355;28;20036;-64
2021/09/04 02:31:37;;;;;;;26.75;10.32;;;12.00;99.90;;;;;;5066099;28;19923;-64
2021/09/04 02:34:03;;;;;;;;;;;12.00;99.90;;;;;;5066736;28;20121;-64
2021/09/04 02:36:28;;;;;;;12.98;7.35;;;12.00;99.90;;;;;;5066961;28;20396;-64
2021/09/04 02:38:54;;;;;;;;;;;12.00;99.90;;;;;;5066662;28;20032;-63
2021/09/04 02:41:19;;;;;;;16.17;6.93;;;11.90;99.90;;;;;;5066661;28;20403;-64
2021/09/04 02:43:45;;;;;;;;;;;11.90;99.90;;;;;;5066091;28;20502;-63
2021/09/04 02:46:11;;;;;;;12.88;6.80;;;11.80;99.90;;;;;;5065873;28;19917;-64
2021/09/04 02:48:36;;;;;;;;;;;11.80;99.90;;;;;;5065970;28;20432;-64
2021/09/04 02:51:02;;;;;;;17.10;6.95;;;11.70;99.90;;;;;;5066665;28;19963;-63
2021/09/04 02:53:28;;;;;;;;;;;11.70;99.90;;;;;;5066915;28;20036;-64
2021/09/04 02:55:53;;;;;;;13.23;6.97;;;11.70;99.90;;;;;;5065669;28;19931;-64
2021/09/04 02:58:19;;;;;;;;;;;11.80;99.90;;;;;;5065745;28;20511;-64
2021/09/04 03:00:44;;;;;;;12.13;6.45;;;11.70;99.90;;;;;;5047784;28;19959;-64
2021/09/04 03:03:10;;;;;;;;;;;11.70;99.90;;;;;;5066267;28;20564;-64
2021/09/04 03:05:36;;;;;;;9.77;6.53;;;11.70;99.90;;;;;;5066215;28;19920;-64
2021/09/04 03:08:03;;;;;;;;;;;11.70;99.90;;;;;;5066728;28;20076;-64
2021/09/04 03:10:28;;;;;;;18.17;7.40;;;11.70;99.90;;;;;;5066590;28;19916;-65
2021/09/04 03:12:54;;;;;;;;;;;11.70;99.90;;;;;;5065687;28;20032;-64
2021/09/04 03:15:20;;;;;;;13.70;7.38;;;11.70;99.90;;;;;;5063213;28;19919;-64
2021/09/04 03:17:45;;;;;;;;;;;11.70;99.90;;;;;;5046063;28;20037;-64
2021/09/04 03:20:11;;;;;;;12.02;6.93;;;11.80;99.90;;;;;;5045673;28;19916;-63
2021/09/04 03:22:37;;;;;;;11.48;6.53;;;11.70;99.90;;;;;;5011995;28;20044;-64
2021/09/04 03:25:04;;;;;;;;;;;11.70;99.90;;;;;;5046681;28;20049;-63
2021/09/04 03:27:30;;;;;;;13.45;7.45;;;11.70;99.90;;;;;;5045182;28;19920;-64
2021/09/04 03:29:56;;;;;;;14.45;8.23;;;11.60;99.90;;;;;;5050090;28;20132;-64
2021/09/04 03:32:22;;;;;;;11.32;7.32;;;11.60;99.90;;;;;;5049620;28;20228;-64
2021/09/04 03:34:47;;;;;;;;;;;11.60;99.90;;;;;;5048528;28;20647;-64
2021/09/04 03:37:13;;;;;;;9.45;6.47;;;11.60;99.90;;;;;;5046442;28;19921;-64
2021/09/04 03:39:38;;;;;;;;;;;11.60;99.90;;;;;;5046378;28;20123;-64
2021/09/04 03:42:04;;;;;;;14.98;6.97;;;11.50;99.90;;;;;;5045145;28;20067;-64
2021/09/04 03:44:30;;;;;;;;;;;11.50;99.90;;;;;;5046981;28;20049;-64
2021/09/04 03:46:55;;;;;;;22.77;7.30;;;11.50;99.90;;;;;;5043988;28;19935;-64
2021/09/04 03:49:21;;;;;;;;;;;11.50;99.90;;;;;;5045624;28;20063;-64
2021/09/04 03:51:46;;;;;;;16.83;7.38;;;11.50;99.90;;;;;;5020138;28;20386;-64
2021/09/04 03:54:12;;;;;;;;;;;11.50;99.90;;;;;;5050119;28;20033;-64
2021/09/04 03:56:37;;;;;;;17.58;6.93;;;11.50;99.90;;;;;;5049118;28;20374;-64
2021/09/04 03:59:03;;;;;;;;;;;11.50;99.90;;;;;;5049203;28;20041;-64
2021/09/04 04:01:28;;;;;;;19.90;6.53;;;11.50;99.90;;;;;;5049047;28;20028;-64
2021/09/04 04:03:53;;;;;;;;;;;11.50;99.90;;;;;;5049806;28;20095;-64
2021/09/04 04:06:19;;;;;;;13.95;7.13;;;11.50;99.90;;;;;;5049058;28;20373;-64
2021/09/04 04:08:45;;;;;;;;;;;11.50;99.90;;;;;;5032014;28;20405;-64
2021/09/04 04:11:12;;;;;;;13.10;7.97;;;11.50;99.90;;;;;;5047722;28;20495;-64
2021/09/04 04:13:38;;;;;;;15.00;7.80;;;11.50;99.90;;;;;;5048858;28;20048;-64
2021/09/04 04:16:05;;;;;;;17.83;7.50;;;11.50;99.90;;;;;;5047775;28;20132;-63
2021/09/04 04:18:31;;;;;;;11.93;7.07;;;11.50;99.90;;;;;;5047822;28;20080;-64
2021/09/04 04:20:58;;;;;;;12.25;7.18;;;11.40;99.90;;;;;;5049200;28;20476;-63
2021/09/04 04:23:23;;;;;;;14.35;7.47;;;11.40;99.90;;;;;;5049104;28;20040;-66
2021/09/04 04:25:50;;;;;;;;;;;11.40;99.90;;;;;;5049561;28;20037;-64
2021/09/04 04:28:16;;;;;;;13.00;7.03;;;11.40;99.90;;;;;;5048437;28;19921;-65
2021/09/04 04:30:41;;;;;;;;;;;11.40;99.90;;;;;;5049143;28;20119;-64
2021/09/04 04:33:07;;;;;;;11.52;7.88;;;11.40;99.90;;;;;;5046421;28;19925;-64
2021/09/04 04:35:32;;;;;;;;;;;11.40;99.90;;;;;;5050294;28;20067;-63
2021/09/04 04:37:58;;;;;;;13.80;7.28;;;11.40;99.90;;;;;;5047732;28;20299;-62
2021/09/04 04:40:23;;;;;;;;;;;11.30;99.90;;;;;;5048710;28;20404;-63
2021/09/04 04:42:49;;;;;;;10.75;6.88;;;11.30;99.90;;;;;;5050433;28;19917;-63
2021/09/04 04:45:14;;;;;;;;;;;11.30;99.90;;;;;;5048584;28;20124;-62
2021/09/04 04:47:40;;;;;;;12.65;6.80;;;11.20;99.90;;;;;;5047692;28;19923;-63
2021/09/04 04:50:06;;;;;;;;;;;11.30;99.90;;;;;;5044237;28;20527;-64
2021/09/04 04:52:31;;;;;;;10.68;6.53;;;11.20;99.90;;;;;;5047994;28;19956;-63
2021/09/04 04:54:57;;;;;;;;;;;11.20;99.90;;;;;;5050168;28;20136;-65
2021/09/04 04:57:22;;;;;;;16.80;7.05;;;11.10;99.90;;;;;;5030713;28;19916;-66
2021/09/04 04:59:48;;;;;;;;;;;11.10;99.90;;;;;;5049118;28;20480;-66
2021/09/04 05:02:13;;;;;;;26.67;17.92;;;11.10;99.90;;;;;;5048488;28;20391;-64
2021/09/04 05:04:39;;;;;;;;;;;11.10;99.90;;;;;;5048759;28;20481;-64
2021/09/04 05:07:05;;;;;;;239.90;135.98;;;11.20;99.90;;;;;;5049077;28;19920;-63
2021/09/04 05:09:30;;;;;;;;;;;11.20;99.90;;;;;;5048576;28;20421;-63
2021/09/04 05:11:56;;;;;;;86.45;45.63;;;11.20;99.90;;;;;;5049379;28;19940;-64
2021/09/04 05:14:21;;;;;;;;;;;11.50;99.90;;;;;;5031462;28;20059;-63
2021/09/04 05:16:47;;;;;;;62.55;31.83;;;11.90;99.90;;;;;;5047612;28;20300;-65
2021/09/04 05:19:12;;;;;;;;;;;12.30;99.90;;;;;;5049922;28;20045;-65
2021/09/04 05:21:38;;;;;;;16.83;9.70;;;12.80;99.90;;;;;;5048633;28;19962;-64
2021/09/04 05:24:04;;;;;;;;;;;13.40;99.90;;;;;;5048803;28;20424;-63
2021/09/04 05:26:29;;;;;;;9.27;6.00;;;13.50;99.90;;;;;;5048611;28;19916;-64
2021/09/04 05:28:55;;;;;;;;;;;13.50;99.90;;;;;;5047744;28;20051;-65
2021/09/04 05:31:21;;;;;;;13.68;6.38;;;;;;;;;;5049600;28;19967;-66
2021/09/04 05:33:47;;;;;;;10.90;6.68;;;;;;;;;;5046180;28;20047;-66
2021/09/04 05:36:13;;;;;;;;;;;;;;;;;;5048874;28;20049;-63
2021/09/04 05:38:39;;;;;;;11.85;6.38;;;;;;;;;;5048265;28;20387;-63
2021/09/04 05:41:06;;;;;;;;;;;;;;;;;;5052212;22;20045;-63
2021/09/04 05:43:32;;;;;;;19.55;9.40;;;;;;;;;;5023243;28;20064;-65
2021/09/04 05:45:59;;;;;;;11.80;6.78;;;;;;;;;;5038842;28;20476;-65
2021/09/04 05:48:25;;;;;;;12.65;7.13;;;;;;;;;;5065942;28;20496;-64
2021/09/04 05:50:51;;;;;;;;;;;;;;;;;;5066915;28;20036;-62
2021/09/04 05:53:17;;;;;;;10.95;6.50;;;;;;;;;;5066631;28;19925;-62
2021/09/04 05:55:43;;;;;;;;;;;;;;;;;;5067010;28;20603;-63
2021/09/04 05:58:09;;;;;;;12.98;6.40;;;;;;;;;;5065841;28;19921;-63
2021/09/04 06:00:35;;;;;;;;;;;;;;;;;;5064146;28;20440;-62
2021/09/04 06:03:01;;;;;;;12.13;7.15;;;;;;;;;;5065703;28;20368;-62
2021/09/04 06:05:29;;;;;;;11.68;7.60;;;;;;;;;;5067420;28;20044;-63
2021/09/04 06:07:54;;;;;;;12.63;7.07;;;;;;;;;;5066866;22;20045;-63
2021/09/04 06:10:20;;;;;;;;;;;;;;;;;;5067932;28;20033;-63
2021/09/04 06:12:46;;;;;;;11.15;6.82;;;;;;;;;;5067635;28;19920;-63
2021/09/04 06:15:12;;;;;;;12.60;6.05;;;;;;;;;;5049530;22;20496;-63
2021/09/04 06:17:38;;;;;;;;;;;;;;;;;;5079348;28;20047;-63
2021/09/04 06:20:06;;;;;;;9.45;6.00;;;;;;;;;;5087299;28;20077;-64
2021/09/04 06:22:32;;;;;;;14.82;7.53;;;;;;;;;;5087554;28;20093;-66
2021/09/04 06:24:58;;;;;;;;;;;;;;;;;;5068921;28;20040;-64
2021/09/04 06:27:24;;;;;;;9.80;6.10;;;;;;;;;;5067819;28;20368;-63
2021/09/04 06:29:49;;;;;;;;;;;;;;;;;;5080345;28;20044;-63
2021/09/04 06:32:16;;;;;;;17.25;6.82;;;;;;;;;;5084665;28;19939;-65
2021/09/04 06:34:42;;;;;;;9.65;6.90;;;;;;;;;;5087203;28;20040;-64
2021/09/04 06:37:08;;;;;;;;;;;;;;;;;;5088367;28;20163;-64
2021/09/04 06:39:34;;;;;;;9.10;6.35;;;;;;;;;;5086478;28;19959;-62
2021/09/04 06:42:00;;;;;;;;;;;;;;;;;;5087536;28;20085;-62
2021/09/04 06:44:26;;;;;;;8.95;6.53;;;;;;;;;;5087438;28;19916;-63
2021/09/04 06:46:52;;;;;;;11.50;7.30;;;;;;;;;;5086303;28;20047;-63
2021/09/04 06:49:18;;;;;;;10.75;7.75;;;;;;;;;;5086587;28;20851;-62
2021/09/04 06:51:44;;;;;;;11.50;8.45;;;;;;;;;;5076497;28;20036;-62
2021/09/04 06:54:10;;;;;;;13.13;7.97;;;;;;;;;;5085243;28;20044;-62
2021/09/04 06:56:36;;;;;;;;;;;;;;;;;;5089294;28;20173;-63
2021/09/04 06:59:02;;;;;;;12.10;7.05;;;;;;;;;;5078148;28;19957;-63
2021/09/04 07:01:28;;;;;;;13.65;7.55;;;;;;;;;;5073758;28;20060;-63
2021/09/04 07:03:54;;;;;;;;;;;;;;;;;;5065221;28;20036;-64
2021/09/04 07:06:20;;;;;;;14.85;8.32;;;;;;;;;;5066204;28;19942;-64
2021/09/04 07:08:46;;;;;;;11.82;7.15;;;;;;;;;;5066031;28;20087;-62
2021/09/04 07:11:12;;;;;;;;;;;;;;;;;;5067815;28;20064;-62
2021/09/04 07:13:39;;;;;;;11.73;6.90;;;;;;;;;;5065635;28;19917;-63
2021/09/04 07:16:05;;;;;;;14.15;8.68;;;;;;;;;;5067630;28;20097;-63
2021/09/04 07:18:31;;;;;;;16.85;8.90;;;;;;;;;;5078143;28;20067;-63
2021/09/04 07:20:57;;;;;;;;;;;;;;;;;;5087394;28;20043;-64
2021/09/04 07:23:23;;;;;;;15.50;8.60;;;;;;;;;;5080294;28;19920;-64
2021/09/04 07:25:49;;;;;;;14.15;9.23;;;;;;;;;;5066643;28;20047;-64
2021/09/04 07:28:15;;;;;;;;;;;;;;;;;;5078723;28;20036;-64
2021/09/04 07:30:41;;;;;;;17.02;9.55;;;;;;;;;;5084966;28;19912;-64
2021/09/04 07:33:07;;;;;;;22.55;11.57;;;;;;;;;;5070955;28;20044;-64
2021/09/04 07:35:33;;;;;;;;;;;;;;;;;;5072159;28;20111;-64
2021/09/04 07:37:59;;;;;;;25.80;12.35;;;;;;;;;;5071648;28;19998;-64
2021/09/04 07:40:25;;;;;;;20.48;11.65;;;;;;;;;;5069066;28;20032;-64
2021/09/04 07:42:51;;;;;;;;;;;;;;;;;;5070842;28;20040;-63
2021/09/04 07:45:17;;;;;;;20.55;11.13;;;;;;;;;;5069346;28;19913;-64
2021/09/04 07:47:43;;;;;;;;;;;;;;;;;;5070714;28;20135;-65
2021/09/04 07:50:09;;;;;;;20.88;12.13;;;;;;;;;;5067869;28;19956;-64
2021/09/04 07:52:35;;;;;;;20.63;10.85;;;;;;;;;;5070388;28;20642;-64
2021/09/04 07:55:01;;;;;;;;;;;;;;;;;;5069616;28;20087;-64
2021/09/04 07:57:27;;;;;;;22.67;10.85;;;;;;;;;;5071546;28;19916;-64
2021/09/04 07:59:56;;;;;;;16.42;10.18;;;;;;;;;;5080561;28;20040;-64
2021/09/04 08:02:22;;;;;;;16.50;9.88;;;;;;;;;;5068783;28;20045;-64
2021/09/04 08:04:49;;;;;;;20.95;9.95;;;;;;;;;;5069186;28;20044;-64
2021/09/04 08:07:15;;;;;;;;;;;;;;;;;;5085076;28;20412;-64
2021/09/04 08:09:41;;;;;;;14.93;9.35;;;;;;;;;;5070061;28;19924;-64
2021/09/04 08:12:07;;;;;;;19.38;10.32;;;;;;;;;;5069282;28;20064;-64
2021/09/04 08:14:33;;;;;;;13.93;8.90;;;;;;;;;;5069609;28;20092;-64
2021/09/04 08:16:59;;;;;;;14.73;8.27;;;;;;;;;;5069169;28;20044;-65
2021/09/04 08:19:25;;;;;;;14.85;8.98;;;;;;;;;;5088757;28;20411;-65
2021/09/04 08:21:51;;;;;;;13.32;8.88;;;;;;;;;;5090305;28;20039;-65
2021/09/04 08:24:17;;;;;;;12.70;8.60;;;;;;;;;;5086210;28;20036;-62
2021/09/04 08:26:44;;;;;;;14.60;8.23;;;;;;;;;;5083110;28;20043;-64
2021/09/04 08:29:10;;;;;;;17.35;7.80;;;;;;;;;;5086346;28;20131;-63
2021/09/04 08:31:36;;;;;;;14.77;8.52;;;;;;;;;;5081833;28;20451;-63
2021/09/04 08:34:03;;;;;;;20.73;9.27;;;;;;;;;;5089894;28;20431;-64
2021/09/04 08:36:29;;;;;;;16.95;8.95;;;;;;;;;;5087736;28;20091;-64
2021/09/04 08:38:55;;;;;;;15.38;7.13;;;;;;;;;;5089033;28;20454;-64
2021/09/04 08:41:21;;;;;;;16.42;9.20;;;;;;;;;;5087796;28;20036;-62
2021/09/04 08:43:47;;;;;;;12.52;7.82;;;;;;;;;;5077496;28;20059;-61
2021/09/04 08:46:16;;;;;;;12.93;9.27;;;;;;;;;;5087002;28;20075;-63
2021/09/04 08:48:43;;;;;;;12.90;7.55;;;;;;;;;;5088683;28;20522;-63
2021/09/04 08:51:09;;;;;;;13.27;8.75;;;;;;;;;;5088897;28;20754;-63
2021/09/04 08:53:35;;;;;;;;;;;;;;;;;;5088667;28;20040;-63
2021/09/04 08:56:01;;;;;;;13.18;8.18;;;;;;;;;;5088023;28;20015;-63
2021/09/04 08:58:27;;;;;;;13.88;8.10;;;;;;;;;;5084027;28;20043;-63
2021/09/04 09:00:53;;;;;;;;;;;;;;;;;;5076456;28;20037;-63
2021/09/04 09:03:28;;;;;;;12.90;8.75;;;;;;;;;;5068846;28;19916;-63
2021/09/04 09:05:55;;;;;;;26.38;11.02;;;;;;;;;;5067128;28;20458;-63
2021/09/04 09:08:24;;;;;;;11.23;7.88;;;;;;;;;;5068459;28;20048;-63
2021/09/04 09:10:52;;;;;;;11.82;7.97;;;;;;;;;;5068309;28;20041;-63
2021/09/04 09:13:19;;;;;;;14.73;8.30;;;;;;;;;;5066971;28;20111;-63
2021/09/04 09:15:45;;;;;;;12.90;8.60;;;;;;;;;;5070627;28;20032;-63
2021/09/04 09:18:12;;;;;;;13.15;8.50;;;;;;;;;;5083882;28;20036;-63
2021/09/04 09:20:42;;;;;;;12.30;7.40;;;;;;;;;;5085724;28;20127;-64
2021/09/04 09:23:10;;;;;;;10.02;7.20;;;;;;;;;;5082617;28;20090;-67
2021/09/04 09:25:36;;;;;;;13.02;7.40;;;;;;;;;;5086217;28;20043;-62
2021/09/04 09:28:08;;;;;;;13.02;8.63;;;;;;;;;;5079276;28;20041;-62
2021/09/04 09:30:38;;;;;;;16.83;8.68;;;;;;;;;;5075047;28;20039;-62
2021/09/04 09:33:05;;;;;;;13.32;8.30;;;;;;;;;;5074896;28;20048;-62
2021/09/04 09:35:34;;;;;;;13.35;7.57;;;;;;;;;;5085030;28;20060;-64
2021/09/04 09:38:01;;;;;;;11.50;8.45;;;;;;;;;;5085879;28;20086;-62
2021/09/04 09:40:27;;;;;;;13.27;8.45;;;;;;;;;;5078411;28;20036;-67
2021/09/04 09:42:53;;;;;;;15.23;8.55;;;;;;;;;;5087768;28;20046;-63
2021/09/04 09:45:19;;;;;;;12.65;7.22;;;;;;;;;;5074024;28;20040;-62
2021/09/04 09:47:51;;;;;;;12.40;8.70;;;;;;;;;;5067488;28;20056;-62
2021/09/04 09:50:18;;;;;;;12.20;8.48;;;;;;;;;;5066530;28;20051;-62
2021/09/04 09:52:45;;;;;;;14.80;10.00;;;;;;;;;;5078675;28;20071;-63
2021/09/04 09:55:12;;;;;;;14.65;10.55;;;;;;;;;;5078439;28;20074;-63
2021/09/04 09:57:38;;;;;;;15.40;8.65;;;;;;;;;;5086677;28;20210;-62
2021/09/04 10:00:05;;;;;;;10.68;8.20;;;;;;;;;;5073658;28;20040;-63
2021/09/04 10:02:31;;;;;;;13.88;9.98;;;;;;;;;;5079225;28;20044;-63
2021/09/04 10:04:57;;;;;;;13.38;7.95;;;;;;;;;;5088951;28;20055;-62
2021/09/04 10:07:24;;;;;;;11.75;8.00;;;;;;;;;;5066091;28;20044;-62
2021/09/04 10:09:50;;;;;;;11.68;7.82;;;;;;;;;;5066483;28;20588;-63
2021/09/04 10:12:16;;;;;;;14.57;8.90;;;;;;;;;;5072959;28;20054;-62
2021/09/04 10:14:42;;;;;;;14.43;9.68;;;;;;;;;;5082284;28;20032;-63
2021/09/04 10:17:09;;;;;;;14.38;9.27;;;;;;;;;;5070725;28;20047;-64
2021/09/04 10:19:36;;;;;;;14.82;8.60;;;;;;;;;;5067975;28;20536;-64
2021/09/04 10:22:09;;;;;;;14.95;9.93;;;;;;;;;;5074458;28;20408;-63
2021/09/04 10:24:51;;;;;;;15.55;10.55;;;;;;;;;;5079134;28;20062;-63
2021/09/04 10:27:39;;;;;;;13.90;9.25;;;;;;;;;;5085270;28;20043;-63
2021/09/04 10:30:25;;;;;;;17.60;8.98;;;;;;;;;;5078560;28;20564;-63
2021/09/04 10:32:58;;;;;;;16.55;8.93;;;;;;;;;;5086448;28;20040;-63
2021/09/04 10:35:42;;;;;;;13.05;8.95;;;;;;;;;;5086781;28;20032;-64
2021/09/04 10:38:20;;;;;;;13.07;9.20;;;;;;;;;;5078542;28;20415;-63
2021/09/04 10:40:47;;;;;;;12.98;9.20;;;;;;;;;;5066862;28;20047;-63
2021/09/04 10:43:17;;;;;;;12.95;8.73;;;;;;;;;;5064853;28;20040;-64
2021/09/04 10:45:45;;;;;;;14.60;10.18;;;;;;;;;;5065726;28;20512;-64
2021/09/04 10:48:15;;;;;;;15.85;10.13;;;;;;;;;;5067207;28;20112;-63
2021/09/04 10:50:41;;;;;;;16.77;10.45;;;;;;;;;;5066793;28;20043;-62
2021/09/04 10:53:07;;;;;;;22.20;13.10;;;;;;;;;;5067262;28;20119;-63
2021/09/04 10:55:33;;;;;;;12.60;8.90;;;;;;;;;;5066891;28;20044;-63
2021/09/04 10:57:59;;;;;;;;;;;;;;;;;;5072693;28;20059;-64
2021/09/04 11:00:26;;;;;;;17.23;10.70;;;;;;;;;;5075978;28;19942;-64
2021/09/04 11:03:02;;;;;;;15.85;10.93;;;;;;;;;;5078317;28;20270;-63
2021/09/04 11:05:37;;;;;;;12.75;8.73;;;;;;;;;;5067633;28;20404;-64
2021/09/04 11:08:05;;;;;;;14.60;9.37;;;;;;;;;;5070815;28;20044;-63
2021/09/04 11:10:32;;;;;;;13.50;9.27;;;;;;;;;;5081010;28;20047;-63
2021/09/04 11:13:13;;;;;;;11.60;8.30;;;;;;;;;;5085307;28;20125;-62
2021/09/04 11:15:43;;;;;;;16.15;8.10;;;;;;;;;;5086008;28;20047;-62
2021/09/04 11:18:09;;;;;;;16.77;8.25;;;;;;;;;;5076846;28;20036;-63
2021/09/04 11:20:45;;;;;;;12.57;6.40;;;;;;;;;;5066013;28;20045;-63
2021/09/04 11:23:12;;;;;;;10.95;8.15;;;;;;;;;;5073312;28;20037;-63
2021/09/04 11:25:41;;;;;;;12.52;8.45;;;;;;;;;;5073854;28;20436;-63
2021/09/04 11:28:07;;;;;;;16.55;9.43;;;;;;;;;;5076428;28;20044;-65
2021/09/04 11:30:33;;;;;;;21.90;8.32;;;;;;;;;;5075727;28;20425;-64
2021/09/04 11:33:25;;;;;;;13.77;8.45;;;;;;;;;;5073501;28;20044;-62
2021/09/04 11:35:52;;;;;;;16.83;8.88;;;;;;;;;;5085046;28;20066;-62
2021/09/04 11:38:18;;;;;;;14.00;8.30;;;;;;;;;;5086133;28;20121;-62
2021/09/04 11:40:44;;;;;;;14.43;9.55;;;;;;;;;;5087110;28;20114;-65
2021/09/04 11:43:11;;;;;;;13.52;7.90;;;;;;;;;;5085898;28;20039;-64
2021/09/04 11:45:37;;;;;;;15.77;7.82;;;;;;;;;;5085295;28;20040;-64
2021/09/04 11:48:14;;;;;;;11.68;8.25;;;;;;;;;;5084632;28;20515;-65
2021/09/04 11:50:40;;;;;;;14.00;10.15;;;;;;;;;;5085397;28;20480;-65
2021/09/04 11:53:09;;;;;;;14.43;8.75;;;;;;;;;;5087778;28;20032;-63
2021/09/04 11:55:35;;;;;;;15.80;9.90;;;;;;;;;;5085359;28;20033;-63
2021/09/04 11:58:02;;;;;;;15.07;10.15;;;;;;;;;;5085862;28;20508;-63
2021/09/04 12:00:32;;;;;;;14.45;10.35;;;;;;;;;;5074233;28;20094;-63
2021/09/04 12:03:02;;;;;;;13.23;8.65;;;;;;;;;;5066006;28;20520;-63
2021/09/04 12:05:29;;;;;;;14.30;10.02;;;;;;;;;;5066526;28;20040;-64
2021/09/04 12:07:56;;;;;;;16.02;10.32;;;;;;;;;;5065466;28;20047;-63
2021/09/04 12:10:27;;;;;;;17.52;10.13;;;;;;;;;;5066125;28;20083;-63
2021/09/04 12:12:54;;;;;;;17.17;10.38;;;;;;;;;;5067516;28;20044;-64
2021/09/04 12:15:20;;;;;;;14.40;10.40;;;;;;;;;;5080465;28;20032;-64
2021/09/04 12:17:50;;;;;;;19.25;11.23;;;;;;;;;;5089935;28;20028;-63
2021/09/04 12:20:16;;;;;;;19.67;12.23;;;;;;;;;;5089177;28;20048;-63
2021/09/04 12:22:42;;;;;;;19.08;12.10;;;;;;;;;;5091070;28;20047;-64
2021/09/04 12:25:29;;;;;;;15.90;10.70;;;;;;;;;;5089377;28;20039;-64
2021/09/04 12:28:00;;;;;;;17.10;10.73;;;;;;;;;;5090747;28;20556;-65
2021/09/04 12:30:26;;;;;;;18.58;11.02;;;;;;;;;;5075682;28;20083;-64
2021/09/04 12:32:51;;;;;;;;;;;;;;;;;;5069927;28;20072;-64
2021/09/04 12:35:18;;;;;;;15.70;10.87;;;;;;;;;;5070523;28;20030;-63
2021/09/04 12:37:44;;;;;;;19.83;12.10;;;;;;;;;;5069756;28;20043;-64
2021/09/04 12:40:10;;;;;;;;;;;;;;;;;;5076919;28;20036;-64
2021/09/04 12:42:37;;;;;;;15.83;11.13;;;;;;;;;;5083796;28;19926;-65
2021/09/04 12:45:13;;;;;;;14.80;9.23;;;;;;;;;;5086364;28;20038;-63
2021/09/04 12:47:44;;;;;;;19.30;12.27;;;;;;;;;;5089227;28;20048;-63
2021/09/04 12:50:23;;;;;;;16.42;10.90;;;;;;;;;;5088782;28;20040;-65
2021/09/04 12:53:05;;;;;;;18.45;10.93;;;;;;;;;;5089327;28;20230;-64
2021/09/04 12:55:50;;;;;;;14.68;9.95;;;;;;;;;;5088964;28;20113;-62
2021/09/04 12:58:17;;;;;;;19.25;10.77;;;;;;;;;;5086524;28;20051;-62
2021/09/04 13:00:43;;;;;;;17.70;11.10;;;;;;;;;;5075302;28;20036;-61
2021/09/04 13:03:09;;;;;;;17.35;11.35;;;;;;;;;;5068862;28;20386;-61
2021/09/04 13:05:34;;;;;;;17.73;11.27;;;;;;;;;;5069349;28;20037;-62
2021/09/04 13:08:02;;;;;;;15.32;10.27;;;;;;;;;;5068407;28;20047;-62
2021/09/04 13:10:29;;;;;;;15.65;9.75;;;;;;;;;;5078039;22;20051;-69
2021/09/04 13:12:55;;;;;;;21.45;13.43;;;;;;;;;;5097706;28;20031;-71
2021/09/04 13:15:22;;;;;;;22.00;12.05;;;;;;;;;;5106368;28;20054;-70
2021/09/04 13:17:49;;;;;;;18.85;12.27;;;;;;;;;;5097788;28;20032;-70
2021/09/04 13:20:18;;;;;;;17.88;12.57;;;;;;;;;;5088730;28;20035;-69
2021/09/04 13:22:46;;;;;;;18.92;12.25;;;;;;;;;;5093057;28;20093;-71
2021/09/04 13:25:14;;;;;;;18.48;12.10;;;;;;;;;;5101032;28;20028;-72
2021/09/04 13:27:40;;;;;;;17.17;12.23;;;;;;;;;;5111188;28;20438;-72
2021/09/04 13:30:07;;;;;;;20.08;11.75;;;;;;;;;;5100991;28;20391;-70
2021/09/04 13:32:34;;;;;;;19.55;12.52;;;;;;;;;;5096032;28;20101;-70
2021/09/04 13:35:00;;;;;;;15.32;10.55;;;;;;;;;;5102028;28;20035;-70
2021/09/04 13:37:26;;;;;;;;;;;;;;;;;;5103331;28;20388;-71
2021/09/04 13:40:05;;;;;;;20.95;11.18;;;;;;;;;;5106849;28;19928;-70
2021/09/04 13:42:41;;;;;;;15.45;10.75;;;;;;;;;;5089332;28;20047;-70
2021/09/04 13:45:08;;;;;;;;;;;;;;;;;;5087659;28;20040;-70
2021/09/04 13:47:34;;;;;;;16.08;10.07;;;;;;;;;;5103927;28;19924;-70
2021/09/04 13:50:00;;;;;;;16.75;10.23;;;;;;;;;;5087291;28;20071;-70
2021/09/04 13:52:26;;;;;;;16.27;9.57;;;;;;;;;;5087365;28;20040;-70
2021/09/04 13:54:52;;;;;;;10.95;7.82;;;;;;;;;;5104491;28;20040;-71
2021/09/04 13:57:18;;;;;;;;;;;;;;;;;;5106611;28;20040;-71
2021/09/04 13:59:56;;;;;;;13.50;9.03;;;;;;;;;;5098248;28;19942;-71
2021/09/04 14:02:29;;;;;;;16.90;10.60;;;;;;;;;;5052312;28;20037;-71
2021/09/04 14:04:55;;;;;;;12.73;8.73;;;;;;;;;;5069279;28;20036;-71
2021/09/04 14:07:21;;;;;;;;;;;;;;;;;;5065608;28;20037;-71